createdAt,value
2022-11-19T00:01:57.344Z,101777.50
2022-11-19T00:04:26.671Z,101781.06
2022-11-19T00:06:54.701Z,101772.25
2022-11-19T00:09:22.601Z,101779.31
2022-11-19T00:12:07.843Z,101783.88
2022-11-19T00:14:36.194Z,101778.56
2022-11-19T00:17:04.077Z,101778.56
2022-11-19T00:19:33.327Z,101769.66
2022-11-19T00:22:01.248Z,101777.72
2022-11-19T00:24:29.383Z,101766.00
2022-11-19T00:26:57.426Z,101773.22
2022-11-19T00:29:25.443Z,101777.63
2022-11-19T00:31:53.381Z,101779.56
2022-11-19T00:34:21.251Z,101771.50
2022-11-19T00:36:50.908Z,101764.41
2022-11-19T00:39:19.426Z,101766.22
2022-11-19T00:41:47.605Z,101764.41
2022-11-19T00:44:15.472Z,101764.41
2022-11-19T00:46:43.361Z,101756.44
2022-11-19T00:49:11.305Z,101757.28
2022-11-19T00:51:39.176Z,101760.09
2022-11-19T00:54:08.783Z,101743.28
2022-11-19T00:56:36.760Z,101757.41
2022-11-19T00:59:05.008Z,101752.97
2022-11-19T01:01:32.945Z,101761.03
2022-11-19T01:04:00.887Z,101758.34
2022-11-19T01:06:28.810Z,101762.03
2022-11-19T01:08:56.667Z,101761.03
2022-11-19T01:11:28.203Z,101758.34
2022-11-19T01:13:56.860Z,101748.66
2022-11-19T01:16:27.175Z,101754.91
2022-11-19T01:18:55.350Z,101751.34
2022-11-19T01:21:24.753Z,101752.22
2022-11-19T01:23:53.438Z,101754.91
2022-11-19T01:26:21.842Z,101759.41
2022-11-19T01:28:51.200Z,101759.41
2022-11-19T01:31:21.640Z,101754.03
2022-11-19T01:33:50.220Z,101766.72
2022-11-19T01:36:20.426Z,101763.09
2022-11-19T01:38:50.934Z,101761.47
2022-11-19T01:41:19.513Z,101757.91
2022-11-19T01:43:49.925Z,101755.09
2022-11-19T01:46:20.991Z,101753.28
2022-11-19T01:48:53.105Z,101751.66
2022-11-19T01:51:26.145Z,101753.50
2022-11-19T01:53:56.812Z,101713.13
2022-11-19T01:56:25.723Z,101749.94
2022-11-19T01:58:56.909Z,101738.34
2022-11-19T02:01:26.336Z,101742.00
2022-11-19T02:03:54.312Z,101748.31
2022-11-19T02:06:22.546Z,101742.00
2022-11-19T02:08:51.615Z,101747.38
2022-11-19T02:11:57.608Z,101744.78
2022-11-19T02:14:34.149Z,101760.03
2022-11-19T02:17:11.902Z,101769.91
2022-11-19T02:20:22.364Z,101766.38
2022-11-19T02:23:26.450Z,101759.38
2022-11-19T02:26:14.834Z,101747.41
2022-11-19T02:28:47.820Z,101750.44
2022-11-19T02:31:22.233Z,101739.69
2022-11-19T02:33:56.869Z,101739.69
2022-11-19T02:36:29.388Z,101727.13
2022-11-19T02:39:02.183Z,101663.88
2022-11-19T02:41:35.040Z,101708.34
2022-11-19T02:44:25.939Z,101695.91
2022-11-19T02:46:56.830Z,101694.16
2022-11-19T02:49:28.754Z,101690.59
2022-11-19T02:51:57.426Z,101695.22
2022-11-19T02:54:26.887Z,101698.78
2022-11-19T02:56:58.840Z,101694.28
2022-11-19T02:59:50.398Z,101704.16
2022-11-19T03:02:39.150Z,101708.66
2022-11-19T03:05:12.505Z,101701.97
2022-11-19T03:07:40.489Z,101721.31
2022-11-19T03:10:11.532Z,101717.84
2022-11-19T03:12:49.527Z,101729.28
2022-11-19T03:15:46.599Z,101721.31
2022-11-19T03:18:19.987Z,101720.53
2022-11-19T03:20:52.106Z,101726.78
2022-11-19T03:23:24.039Z,101717.84
2022-11-19T03:25:55.652Z,101718.72
2022-11-19T03:28:28.539Z,101716.91
2022-11-19T03:30:59.615Z,101703.03
2022-11-19T03:33:33.425Z,101714.22
2022-11-19T03:36:07.259Z,101715.16
2022-11-19T03:38:39.951Z,101726.03
2022-11-19T03:41:09.076Z,101717.03
2022-11-19T03:43:40.644Z,101707.13
2022-11-19T03:46:15.318Z,101711.53
2022-11-19T03:48:47.422Z,101683.88
2022-11-19T03:51:21.205Z,101706.28
2022-11-19T03:53:49.632Z,101714.41
2022-11-19T03:56:21.821Z,101703.69
2022-11-19T03:58:49.790Z,101706.38
2022-11-19T04:01:17.776Z,101707.22
2022-11-19T04:04:07.228Z,101711.72
2022-11-19T04:06:35.115Z,101712.72
2022-11-19T04:09:03.090Z,101716.34
2022-11-19T04:11:30.979Z,101703.88
2022-11-19T04:13:59.176Z,101708.28
2022-11-19T04:16:27.595Z,101716.34
2022-11-19T04:18:56.921Z,101703.78
2022-11-19T04:21:24.840Z,101693.44
2022-11-19T04:23:52.922Z,101696.81
2022-11-19T04:26:20.851Z,101688.94
2022-11-19T04:28:48.714Z,101698.50
2022-11-19T04:31:18.134Z,101692.31
2022-11-19T04:33:46.371Z,101689.63
2022-11-19T04:36:15.663Z,101674.09
2022-11-19T04:38:43.758Z,101683.56
2022-11-19T04:41:11.664Z,101687.00
2022-11-19T04:43:39.655Z,101680.88
2022-11-19T04:46:07.572Z,101688.00
2022-11-19T04:48:35.514Z,101682.63
2022-11-19T04:51:03.407Z,101680.13
2022-11-19T04:53:32.727Z,101690.69
2022-11-19T04:56:00.667Z,101696.06
2022-11-19T04:58:28.707Z,101690.75
2022-11-19T05:00:56.591Z,101689.91
2022-11-19T05:03:24.466Z,101689.06
2022-11-19T05:05:52.408Z,101694.31
2022-11-19T05:08:20.312Z,101687.22
2022-11-19T05:10:49.658Z,101676.47
2022-11-19T05:13:17.545Z,101685.50
2022-11-19T05:15:45.515Z,101689.06
2022-11-19T05:18:13.930Z,101650.19
2022-11-19T05:20:42.094Z,101681.84
2022-11-19T05:23:10.073Z,101694.44
2022-11-19T05:25:38.212Z,101696.34
2022-11-19T05:28:07.563Z,101698.06
2022-11-19T05:30:36.498Z,101696.25
2022-11-19T05:33:04.476Z,101703.53
2022-11-19T05:35:32.980Z,101693.56
2022-11-19T05:38:00.855Z,101678.91
2022-11-19T05:40:28.735Z,101690.09
2022-11-19T05:42:56.619Z,101686.56
2022-11-19T05:45:25.918Z,101679.34
2022-11-19T05:47:55.884Z,101686.47
2022-11-19T05:50:23.812Z,101685.69
2022-11-19T05:52:51.780Z,101669.03
2022-11-19T05:55:20.809Z,101680.34
2022-11-19T05:57:48.760Z,101681.28
2022-11-19T06:00:17.710Z,101669.13
2022-11-19T06:02:47.025Z,101679.47
2022-11-19T06:05:15.682Z,101674.09
2022-11-19T06:07:43.586Z,101673.22
2022-11-19T06:10:12.128Z,101670.53
2022-11-19T06:12:45.200Z,101651.19
2022-11-19T06:15:13.721Z,101660.88
2022-11-19T06:17:41.819Z,101657.13
2022-11-19T06:20:12.077Z,101642.00
2022-11-19T06:22:40.938Z,101642.00
2022-11-19T06:25:09.668Z,101645.63
2022-11-19T06:27:37.689Z,101646.50
2022-11-19T06:30:06.876Z,101645.63
2022-11-19T06:32:34.818Z,101650.13
2022-11-19T06:35:02.722Z,101652.81
2022-11-19T06:37:32.227Z,101652.81
2022-11-19T06:40:00.109Z,101654.63
2022-11-19T06:42:39.952Z,101650.34
2022-11-19T06:45:10.479Z,101658.31
2022-11-19T06:47:39.403Z,101653.81
2022-11-19T06:50:09.436Z,101632.91
2022-11-19T06:52:39.022Z,101653.81
2022-11-19T06:55:07.729Z,101644.75
2022-11-19T06:57:35.696Z,101648.44
2022-11-19T07:00:03.591Z,101653.81
2022-11-19T07:02:31.552Z,101654.63
2022-11-19T07:04:59.474Z,101661.00
2022-11-19T07:07:27.596Z,101658.31
2022-11-19T07:09:56.969Z,101653.13
2022-11-19T07:12:24.866Z,101643.84
2022-11-19T07:14:52.743Z,101667.22
2022-11-19T07:17:20.755Z,101657.56
2022-11-19T07:19:48.656Z,101667.31
2022-11-19T07:22:16.611Z,101664.63
2022-11-19T07:24:44.907Z,101664.63
2022-11-19T07:27:14.180Z,101663.66
2022-11-19T07:29:42.064Z,101661.94
2022-11-19T07:32:10.062Z,101665.59
2022-11-19T07:34:38.040Z,101663.88
2022-11-19T07:37:05.926Z,101656.69
2022-11-19T07:39:33.989Z,101648.16
2022-11-19T07:42:19.368Z,101662.06
2022-11-19T07:44:55.108Z,101666.56
2022-11-19T07:47:23.184Z,101671.06
2022-11-19T07:49:51.100Z,101662.06
2022-11-19T07:52:19.078Z,101666.56
2022-11-19T07:54:47.019Z,101661.19
2022-11-19T07:57:15.260Z,101656.69
2022-11-19T07:59:43.275Z,101658.63
2022-11-19T08:02:13.969Z,101635.91
2022-11-19T08:04:41.934Z,101641.53
2022-11-19T08:07:10.094Z,101629.09
2022-11-19T08:09:38.042Z,101619.81
2022-11-19T08:12:06.468Z,101631.78
2022-11-19T08:14:34.814Z,101622.38
2022-11-19T08:17:20.378Z,101634.47
2022-11-19T08:19:49.738Z,101628.22
2022-11-19T08:22:17.628Z,101630.03
2022-11-19T08:24:45.807Z,101628.22
2022-11-19T08:27:14.023Z,101623.81
2022-11-19T08:29:41.950Z,101622.84
2022-11-19T08:32:09.894Z,101613.19
2022-11-19T08:34:37.830Z,101620.25
2022-11-19T08:37:07.248Z,101622.84
2022-11-19T08:39:35.301Z,101616.63
2022-11-19T08:42:20.332Z,101615.75
2022-11-19T08:44:48.432Z,101612.19
2022-11-19T08:47:16.309Z,101614.03
2022-11-19T08:49:44.210Z,101597.28
2022-11-19T08:52:14.918Z,101599.75
2022-11-19T08:54:42.784Z,101606.81
2022-11-19T08:57:10.723Z,101606.94
2022-11-19T08:59:38.693Z,101598.03
2022-11-19T09:02:06.972Z,101600.63
2022-11-19T09:04:35.104Z,101603.31
2022-11-19T09:07:03.053Z,101601.56
2022-11-19T09:09:32.394Z,101596.09
2022-11-19T09:12:00.285Z,101595.25
2022-11-19T09:14:28.334Z,101592.66
2022-11-19T09:16:56.213Z,101586.34
2022-11-19T09:19:24.098Z,101586.34
2022-11-19T09:21:51.970Z,101595.25
2022-11-19T09:24:20.393Z,101596.22
2022-11-19T09:26:52.832Z,101597.06
2022-11-19T09:29:21.067Z,101592.78
2022-11-19T09:31:49.063Z,101588.56
2022-11-19T09:34:17.220Z,101584.59
2022-11-19T09:36:45.310Z,101592.66
2022-11-19T09:39:13.504Z,101581.16
2022-11-19T09:41:53.206Z,101574.06
2022-11-19T09:44:48.434Z,101583.84
2022-11-19T09:47:24.564Z,101573.13
2022-11-19T09:50:02.530Z,101565.06
2022-11-19T09:52:34.525Z,101557.97
2022-11-19T09:55:03.291Z,101552.59
2022-11-19T09:57:37.935Z,101549.81
2022-11-19T10:00:09.319Z,101559.69
2022-11-19T10:02:40.279Z,101552.16
2022-11-19T10:05:09.247Z,101546.03
2022-11-19T10:07:45.972Z,101559.69
2022-11-19T10:10:27.357Z,101562.38
2022-11-19T10:13:14.570Z,101560.66
2022-11-19T10:16:01.702Z,101552.59
2022-11-19T10:18:39.086Z,101550.97
2022-11-19T10:21:14.320Z,101543.78
2022-11-19T10:23:51.170Z,101537.47
2022-11-19T10:26:22.784Z,101560.84
2022-11-19T10:28:57.121Z,101505.88
2022-11-19T10:31:33.939Z,101539.06
2022-11-19T10:34:08.600Z,101539.44
2022-11-19T10:36:42.316Z,101539.81
2022-11-19T10:39:18.273Z,101535.72
2022-11-19T10:41:51.598Z,101528.84
2022-11-19T10:44:43.874Z,101514.69
2022-11-19T10:47:18.580Z,101522.06
2022-11-19T10:49:46.645Z,101491.19
2022-11-19T10:52:26.099Z,101502.63
2022-11-19T10:54:57.650Z,101506.50
2022-11-19T10:57:26.944Z,101484.31
2022-11-19T10:59:56.605Z,101511.28
2022-11-19T11:02:34.379Z,101497.97
2022-11-19T11:05:08.127Z,101505.38
2022-11-19T11:07:57.185Z,101495.91
2022-11-19T11:10:35.168Z,101485.50
2022-11-19T11:13:42.242Z,101484.72
2022-11-19T11:16:14.538Z,101492.31
2022-11-19T11:18:42.766Z,101488.97
2022-11-19T11:21:22.203Z,101514.06
2022-11-19T11:23:54.072Z,101493.88
2022-11-19T11:26:24.671Z,101490.63
2022-11-19T11:29:00.002Z,101480.00
2022-11-19T11:31:38.826Z,101494.41
2022-11-19T11:34:08.824Z,101476.72
2022-11-19T11:36:38.287Z,101473.47
2022-11-19T11:39:07.205Z,101463.94
2022-11-19T11:42:04.803Z,101455.03
2022-11-19T11:44:29.003Z,101457.22
2022-11-19T11:47:01.452Z,101451.47
2022-11-19T11:49:32.157Z,101447.28
2022-11-19T11:52:07.335Z,101466.03
2022-11-19T11:54:36.065Z,101466.22
2022-11-19T11:57:17.286Z,101465.66
2022-11-19T11:59:45.895Z,101467.47
2022-11-19T12:02:26.793Z,101473.78
2022-11-19T12:04:56.755Z,101477.53
2022-11-19T12:07:48.338Z,101470.47
2022-11-19T12:10:26.384Z,101467.97
2022-11-19T12:13:17.532Z,101442.06
2022-11-19T12:15:52.869Z,101446.53
2022-11-19T12:18:34.862Z,101470.09
2022-11-19T12:21:11.755Z,101453.25
2022-11-19T12:23:53.832Z,101465.22
2022-11-19T12:26:32.402Z,101459.00
2022-11-19T12:29:13.490Z,101454.69
2022-11-19T12:32:10.833Z,101466.47
2022-11-19T12:35:08.180Z,101455.16
2022-11-19T12:37:50.363Z,101471.31
2022-11-19T12:40:39.086Z,101458.91
2022-11-19T12:43:21.979Z,101457.28
2022-11-19T12:46:01.623Z,101449.31
2022-11-19T12:48:44.193Z,101461.84
2022-11-19T12:51:24.236Z,101459.09
2022-11-19T12:54:08.294Z,101464.44
2022-11-19T12:56:46.649Z,101459.28
2022-11-19T12:59:32.340Z,101453.41
2022-11-19T13:02:04.059Z,101457.84
2022-11-19T13:04:40.462Z,101458.69
2022-11-19T13:07:14.833Z,101460.50
2022-11-19T13:09:47.689Z,101463.38
2022-11-19T13:12:18.768Z,101450.84
2022-11-19T13:14:54.633Z,101445.50
2022-11-19T13:17:27.515Z,101457.75
2022-11-19T13:19:59.089Z,101433.75
2022-11-19T13:22:33.914Z,101453.25
2022-11-19T13:25:06.500Z,101443.41
2022-11-19T13:27:34.560Z,101445.31
2022-11-19T13:30:04.927Z,101454.09
2022-11-19T13:32:39.686Z,101453.25
2022-11-19T13:35:24.261Z,101454.09
2022-11-19T13:37:59.010Z,101463.94
2022-11-19T13:40:33.524Z,101467.59
2022-11-19T13:43:35.426Z,101456.41
2022-11-19T13:46:12.395Z,101455.53
2022-11-19T13:48:43.598Z,101453.06
2022-11-19T13:51:25.726Z,101406.38
2022-11-19T13:54:02.576Z,101457.63
2022-11-19T13:56:47.123Z,101444.31
2022-11-19T13:59:32.395Z,101427.19
2022-11-19T14:02:31.803Z,101456.16
2022-11-19T14:05:24.204Z,101458.94
2022-11-19T14:08:24.139Z,101461.78
2022-11-19T14:11:07.165Z,101464.56
2022-11-19T14:14:01.160Z,101468.88
2022-11-19T14:16:56.975Z,101475.00
2022-11-19T14:19:42.792Z,101473.19
2022-11-19T14:22:49.828Z,101478.34
2022-11-19T14:26:01.668Z,101479.22
2022-11-19T14:28:46.244Z,101474.69
2022-11-19T14:31:15.075Z,101474.63
2022-11-19T14:33:57.837Z,101478.97
2022-11-19T14:36:31.475Z,101465.47
2022-11-19T14:39:02.784Z,101471.59
2022-11-19T14:41:34.700Z,101476.00
2022-11-19T14:44:10.982Z,101477.81
2022-11-19T14:46:41.510Z,101484.91
2022-11-19T14:49:34.297Z,101482.13
2022-11-19T14:52:03.217Z,101471.97
2022-11-19T14:54:34.974Z,101481.25
2022-11-19T14:57:08.716Z,101477.63
2022-11-19T14:59:39.035Z,101476.88
2022-11-19T15:02:20.978Z,101477.81
2022-11-19T15:04:55.192Z,101481.25
2022-11-19T15:07:36.380Z,101489.19
2022-11-19T15:10:24.280Z,101481.16
2022-11-19T15:13:24.058Z,101482.03
2022-11-19T15:15:55.762Z,101482.13
2022-11-19T15:19:03.058Z,101480.19
2022-11-19T15:21:58.588Z,101491.97
2022-11-19T15:24:39.974Z,101491.13
2022-11-19T15:27:18.936Z,101495.59
2022-11-19T15:30:13.464Z,101487.16
2022-11-19T15:33:00.325Z,101503.72
2022-11-19T15:35:47.194Z,101495.78
2022-11-19T15:38:29.515Z,101495.03
2022-11-19T15:41:01.220Z,101501.25
2022-11-19T15:43:34.548Z,101508.22
2022-11-19T15:46:08.635Z,101493.72
2022-11-19T15:48:42.705Z,101510.91
2022-11-19T15:51:16.098Z,101507.19
2022-11-19T15:53:59.429Z,101506.22
2022-11-19T15:56:30.675Z,101505.34
2022-11-19T15:58:58.875Z,101508.00
2022-11-19T16:01:29.363Z,101515.09
2022-11-19T16:03:57.487Z,101514.25
2022-11-19T16:06:29.125Z,101515.00
2022-11-19T16:09:00.323Z,101519.53
2022-11-19T16:11:48.537Z,101519.41
2022-11-19T16:14:39.159Z,101521.41
2022-11-19T16:17:43.251Z,101498.78
2022-11-19T16:20:23.010Z,101520.56
2022-11-19T16:23:04.065Z,101524.00
2022-11-19T16:25:35.236Z,101520.34
2022-11-19T16:28:07.363Z,101525.72
2022-11-19T16:30:46.231Z,101527.53
2022-11-19T16:33:19.818Z,101526.69
2022-11-19T16:35:52.831Z,101535.47
2022-11-19T16:38:27.278Z,101535.47
2022-11-19T16:41:16.308Z,101537.28
2022-11-19T16:43:48.711Z,101544.38
2022-11-19T16:46:20.176Z,101550.50
2022-11-19T16:48:58.983Z,101546.75
2022-11-19T16:51:41.343Z,101559.28
2022-11-19T16:54:11.777Z,101554.91
2022-11-19T16:56:45.429Z,101549.25
2022-11-19T16:59:23.821Z,101523.91
2022-11-19T17:01:58.451Z,101551.81
2022-11-19T17:04:30.091Z,101552.63
2022-11-19T17:06:58.660Z,101558.81
2022-11-19T17:09:42.342Z,101550.13
2022-11-19T17:12:25.118Z,101559.59
2022-11-19T17:14:56.207Z,101545.06
2022-11-19T17:17:26.615Z,101561.31
2022-11-19T17:19:57.718Z,101528.78
2022-11-19T17:22:30.992Z,101560.06
2022-11-19T17:24:59.067Z,101562.19
2022-11-19T17:27:29.015Z,101562.19
2022-11-19T17:30:02.543Z,101552.97
2022-11-19T17:32:35.819Z,101572.81
2022-11-19T17:35:09.486Z,101574.69
2022-11-19T17:37:37.540Z,101572.19
2022-11-19T17:40:06.144Z,101573.06
2022-11-19T17:42:51.410Z,101567.72
2022-11-19T17:45:19.348Z,101560.31
2022-11-19T17:47:47.241Z,101577.66
2022-11-19T17:50:16.711Z,101575.16
2022-11-19T17:52:44.558Z,101583.88
2022-11-19T17:55:17.586Z,101580.22
2022-11-19T17:57:45.512Z,101577.56
2022-11-19T18:00:14.502Z,101574.97
2022-11-19T18:02:42.477Z,101588.25
2022-11-19T18:05:18.857Z,101580.16
2022-11-19T18:07:50.507Z,101588.38
2022-11-19T18:10:18.498Z,101592.00
2022-11-19T18:12:46.633Z,101595.53
2022-11-19T18:15:20.066Z,101586.16
2022-11-19T18:17:48.399Z,101595.53
2022-11-19T18:20:17.688Z,101596.41
2022-11-19T18:22:45.675Z,101529.66
2022-11-19T18:25:15.647Z,101565.69
2022-11-19T18:27:43.610Z,101575.09
2022-11-19T18:30:12.749Z,101569.91
2022-11-19T18:32:40.757Z,101556.13
2022-11-19T18:35:16.592Z,101566.09
2022-11-19T18:37:46.408Z,101573.25
2022-11-19T18:40:15.827Z,101563.13
2022-11-19T18:43:04.990Z,101579.47
2022-11-19T18:45:32.208Z,101585.88
2022-11-19T18:48:00.106Z,101578.72
2022-11-19T18:50:30.072Z,101573.63
2022-11-19T18:52:59.768Z,101589.41
2022-11-19T18:55:27.690Z,101602.81
2022-11-19T18:57:55.585Z,101589.88
2022-11-19T19:00:23.783Z,101596.59
2022-11-19T19:02:51.645Z,101603.75
2022-11-19T19:05:19.771Z,101602.91
2022-11-19T19:07:47.649Z,101592.09
2022-11-19T19:10:17.328Z,101596.50
2022-11-19T19:12:44.249Z,101595.94
2022-11-19T19:15:12.160Z,101598.38
2022-11-19T19:17:40.103Z,101606.53
2022-11-19T19:20:09.416Z,101606.44
2022-11-19T19:22:37.316Z,101602.03
2022-11-19T19:25:06.199Z,101602.81
2022-11-19T19:27:35.841Z,101603.09
2022-11-19T19:30:03.805Z,101599.44
2022-11-19T19:32:31.708Z,101597.63
2022-11-19T19:34:59.580Z,101597.63
2022-11-19T19:37:27.573Z,101584.00
2022-11-19T19:39:55.568Z,101595.13
2022-11-19T19:42:23.448Z,101591.50
2022-11-19T19:44:52.776Z,101588.72
2022-11-19T19:47:20.756Z,101570.97
2022-11-19T19:49:48.661Z,101579.66
2022-11-19T19:52:16.641Z,101576.72
2022-11-19T19:54:44.755Z,101571.16
2022-11-19T19:57:12.703Z,101562.84
2022-11-19T19:59:40.599Z,101547.84
2022-11-19T20:02:10.885Z,101558.84
2022-11-19T20:04:38.820Z,101560.47
2022-11-19T20:07:06.969Z,101562.09
2022-11-19T20:09:34.895Z,101567.28
2022-11-19T20:12:02.870Z,101563.66
2022-11-19T20:14:30.784Z,101568.72
2022-11-19T20:16:58.760Z,101557.88
2022-11-19T20:19:28.050Z,101566.69
2022-11-19T20:21:56.395Z,101563.94
2022-11-19T20:24:24.449Z,101563.75
2022-11-19T20:26:52.504Z,101523.25
2022-11-19T20:29:22.005Z,101572.53
2022-11-19T20:31:51.668Z,101561.81
2022-11-19T20:34:19.884Z,101571.50
2022-11-19T20:36:49.230Z,101562.88
2022-11-19T20:39:17.155Z,101581.91
2022-11-19T20:42:02.450Z,101580.84
2022-11-19T20:44:30.504Z,101576.66
2022-11-19T20:47:00.316Z,101579.03
2022-11-19T20:49:29.745Z,101575.41
2022-11-19T20:51:59.391Z,101579.81
2022-11-19T20:54:28.053Z,101571.75
2022-11-19T20:56:57.177Z,101576.19
2022-11-19T20:59:26.360Z,101571.69
2022-11-19T21:01:56.061Z,101570.63
2022-11-19T21:04:24.851Z,101549.88
2022-11-19T21:06:53.931Z,101575.88
2022-11-19T21:09:23.744Z,101571.28
2022-11-19T21:11:52.018Z,101570.31
2022-11-19T21:14:19.918Z,101564.97
2022-11-19T21:16:47.799Z,101564.06
2022-11-19T21:19:15.986Z,101565.75
2022-11-19T21:21:44.904Z,101562.13
2022-11-19T21:24:12.869Z,101563.00
2022-11-19T21:26:42.489Z,101558.47
2022-11-19T21:29:10.407Z,101554.78
2022-11-19T21:31:44.255Z,101544.88
2022-11-19T21:34:13.693Z,101543.00
2022-11-19T21:36:43.495Z,101539.34
2022-11-19T21:39:12.553Z,101527.75
2022-11-19T21:41:41.843Z,101525.06
2022-11-19T21:44:10.086Z,101525.84
2022-11-19T21:46:38.089Z,101524.00
2022-11-19T21:49:06.362Z,101521.31
2022-11-19T21:51:34.613Z,101513.09
2022-11-19T21:54:02.516Z,101523.91
2022-11-19T21:56:36.864Z,101522.19
2022-11-19T21:59:07.943Z,101519.19
2022-11-19T22:01:36.520Z,101514.91
2022-11-19T22:04:04.528Z,101518.44
2022-11-19T22:06:33.175Z,101525.34
2022-11-19T22:09:01.245Z,101515.56
2022-11-19T22:11:32.383Z,101514.63
2022-11-19T22:14:03.197Z,101512.78
2022-11-19T22:16:34.907Z,101522.47
2022-11-19T22:19:03.011Z,101510.31
2022-11-19T22:21:30.916Z,101512.59
2022-11-19T22:23:59.158Z,101518.81
2022-11-19T22:26:27.433Z,101508.00
2022-11-19T22:28:55.519Z,101504.47
2022-11-19T22:31:23.738Z,101508.00
2022-11-19T22:33:53.883Z,101508.84
2022-11-19T22:36:23.026Z,101504.34
2022-11-19T22:38:51.817Z,101494.50
2022-11-19T22:41:22.097Z,101486.56
2022-11-19T22:43:50.742Z,101489.13
2022-11-19T22:46:20.210Z,101488.19
2022-11-19T22:48:48.559Z,101487.31
2022-11-19T22:51:20.132Z,101438.34
2022-11-19T22:53:48.885Z,101481.84
2022-11-19T22:56:18.552Z,101481.84
2022-11-19T22:58:46.812Z,101481.75
2022-11-19T23:01:18.286Z,101451.22
2022-11-19T23:03:46.464Z,101474.53
2022-11-19T23:06:14.980Z,101467.38
2022-11-19T23:08:44.536Z,101465.44
2022-11-19T23:11:14.579Z,101460.00
2022-11-19T23:13:43.839Z,101457.31
2022-11-19T23:16:14.212Z,101458.19
2022-11-19T23:18:46.634Z,101437.25
2022-11-19T23:21:16.168Z,101453.66
2022-11-19T23:23:45.663Z,101450.00
2022-11-19T23:26:16.262Z,101450.88
2022-11-19T23:28:44.787Z,101444.78
2022-11-19T23:31:16.463Z,101442.72
2022-11-19T23:33:44.759Z,101441.03
2022-11-19T23:36:14.927Z,101444.44
2022-11-19T23:38:43.303Z,101441.09
2022-11-19T23:41:14.489Z,101441.78
2022-11-19T23:43:43.212Z,101432.97
2022-11-19T23:46:14.165Z,101427.69
2022-11-19T23:48:43.409Z,101428.56
2022-11-19T23:51:12.644Z,101419.56
2022-11-19T23:53:40.939Z,101414.22
2022-11-19T23:56:09.343Z,101415.16
2022-11-19T23:58:38.796Z,101419.44
